Share

Clearmont, WY (82835)

12:39 AM MDT on April 25, 2014 (GMT -0600)
Merlin Ranch (KWYBUFFA7) Elev 4364 ft | 44.42 °N, 106.59 °W | Change Station

Current weather conditions updated 27 minutes ago

Clear
Clear
39.5 °F
Feels Like 40 °F
N
1.0
Wind Variable Wind from SSW
Gusts 2.0 mph
Sunrise 6:04 AM
Sunset 8:03 PM
Moon Waning Crescent

Today is forecast to be Warmer than yesterday.

Pressure 29.82 in
Visibility 10.0 miles
Clouds Clear
Windchill 40 °F
Dew Point 29 °F
Humidity 67%
Rainfall 0.00 in
Snow Depth Not available.
UV 0.0 out of 16
Pollen 10.40 out of 12
Air Quality Not available.
Flu Activity Sporadic
METAR KBYG 250553Z AUTO 30007KT 10SM CLR 06/M03 A2986 RMK AO2 SLP097 T00561028 10144 20056 51011

More Conditions Fewer Conditions

Pressure 29.82 in
Visibility 10.0 miles
Clouds Clear
Windchill 40 °F
Dew Point 29 °F
Humidity 67%
Rainfall 0.00 in
Snow Depth Not available.
UV 0.0 out of 16
Pollen 10.40 out of 12
Air Quality Not available.
Flu Activity Sporadic
METAR KBYG 250553Z AUTO 30007KT 10SM CLR 06/M03 A2986 RMK AO2 SLP097 T00561028 10144 20056 51011

More Conditions Fewer Conditions

10-Day Weather Forecast

Almanac

Astronomy

Apr. 25, 2014 Rise Set
Actual Time 6:04 AM MDT 8:03 PM MDT
Civil Twilight 5:33 AM MDT 8:34 PM MDT
Nautical Twilight 4:54 AM MDT 9:13 PM MDT
Astronomical Twilight 4:12 AM MDT 9:56 PM MDT
Moon 4:04 AM MDT 4:19 PM MDT
Length of Visible Light 15h 01m
Length of Day
13h 58m
Tomorrow will be 2m 48s longer.
Waning Crescent, 19% of the Moon is Illuminated
Today
Waning Crescent
Apr 29
New
May 6
First Quarter
May 14
Full
May 21
Last Quarter

Community

  • Deer in evening light
    Deer in evening light
  • Critter
    Critter
  • Jone Runs Falls
    Jone Runs Falls
  • Easter in Shenandoah National Park
    Easter in Shenandoah National Park
  • Sunset at Apalachicola Bay, Florida
    Sunset at Apalachicola Bay, Florida

WunderPhotos

Upload Photos

1,704,870 photos uploaded!

WunderBlogs® & News

Nearby

Snow Depth

Station Depth Elevation
Cloud Peak Reservoir 62 in 9860 ft
Big Goose 38 in 7990 ft
Hansen Sawmill 25 in 8360 ft
Dome Lake 53 in 8880 ft
Sucker Creek 55 in 8880 ft

Coastal Water Temperatures

Place Temperature
No Stations Reporting

Earthquake Activity

City Distance Mag. Time & Date
No recent earthquake activity has been reported nearby.
Minimum magnitude displayed is 2.5.

Nearby Weather Stations

Station Location Temp. Windchill Dew Point Humidity Wind Precip. Elev Updated Type
Merlin Ranch, Buffalo, WY 39.5 °F 40 °F 29 °F 67% SSW  at  1.0 mph 0.00 in / hr 4364 ft 12:12 AM MDT Normal

Show More Stations Show Fewer Stations

What do you think?

We're not finished. Please let us know what you like, what you don't like, and what you are still missing.